TAF and METAR

Decoding for American and Canadian METARs and TAFs is not fully implemented.

Could not understand the following METAR

KBBF 192055Z AUTO 17012KT 10SM FEW020 FEW120 60/57 A2972 RMK A01
No TAF available for Brazos 133B Oilp
Brazos 133B Oilp in United States of America at 36m

Latest 5 airports